Belgium, WI (53004)

05:19 AM CDT am 28. April 2015 (GMT -0500)
Silver Beach | | Change Station
CLOSE
Current Station
Persönliche Wetterstationen
Location: Belgium, WI
Höhe: 614 ft
Wetterstationen in der Umgebung

Höhe 614 ft 43.51 °N, 87.79 °W | Updated 12 minutes ago

Heiter
Heiter
36.7 °F
gefühlte 37 °F
N
2.2
Wind Wechselnd Wind aus West-Nordwest

Heute
Max. -- | schwach -- °F
--% Regenrisiko
Gestern
Max. -- | schwach -- °F
Precip. -- inch
5:48 AM 7:49 PM
Zweites Viertel, 72% visible
Druck 30.16 inch
Sichtweite 10.0 Meilen
Wolken Heiter
Windchill 37 °F
Taupunkt 31 °F
Feuchtigkeit 81%
Regen 0.00 inch
Schneehöhe Nicht verfügbar..
UV 0 von 12
Pollen 10.30 von 12
Luftqualität Nicht verfügbar..
Flu Activity Local Activity
METAR KETB 280950Z AUTO 00000KT 10SM CLR 00/M01 A3016 RMK AO2

More Conditions Fewer Conditions

Druck 30.16 inch
Sichtweite 10.0 Meilen
Wolken Heiter
Windchill 37 °F
Taupunkt 31 °F
Feuchtigkeit 81%
Regen 0.00 inch
Schneehöhe Nicht verfügbar..
UV 0 von 12
Pollen 10.30 von 12
Luftqualität Nicht verfügbar..
Flu Activity Local Activity
METAR KETB 280950Z AUTO 00000KT 10SM CLR 00/M01 A3016 RMK AO2

More Conditions Fewer Conditions

10-Day Weather Forecast

Almanac

Astronomie

Apr. 28, 2015 Aufgang Untergang
Genaue Zeit
Bürgerliche Dämmerung
Nautische Dämmerung
Astronomische Dämmerung
Mond
Länge des sichtbaren Lichts
Tageslänge
Tomorrow will be .
, % of the Moon is Illuminated

Heutige Rekorde

State Highs State Lows

Community

WunderPhotos

Upload Photos

1,817,600 Fotos hochgeladen!

WunderBlogs® & News

Nearby

Luftqualität

  Luftqualität LQ Index Schadstoff
Not available.

Schneehöhe

Station Depth Höhe

Erdbebenaktivität

Stadt Distance Mag. Time & Date
Minimum magnitude displayed is 2.5.

küstennahe Wassertemperaturen

Ort Temperatur

Stations

Wetterstationen in der Umgebung

Stationsstandort Temp. Windchill Taupunkt Feuchtigkeit Wind Precip. Höhe Aktualisiert Art